createdAt,value
2018-12-29T00:00:24.201Z,0.91
2018-12-29T00:01:24.605Z,0.92
2018-12-29T00:02:26.300Z,0.81
2018-12-29T00:03:26.713Z,0.89
2018-12-29T00:04:27.682Z,0.95
2018-12-29T00:05:28.376Z,1.06
2018-12-29T00:06:29.511Z,1.14
2018-12-29T00:07:30.721Z,1.18
2018-12-29T00:08:31.134Z,1.13
2018-12-29T00:09:32.550Z,1.13
2018-12-29T00:10:32.965Z,1.21
2018-12-29T00:11:33.804Z,1.27
2018-12-29T00:12:34.222Z,1.3
2018-12-29T00:13:34.634Z,1.32
2018-12-29T00:14:35.769Z,1.38
2018-12-29T00:15:36.458Z,1.32
2018-12-29T00:16:36.873Z,1.28
2018-12-29T00:17:37.283Z,1.25
2018-12-29T00:18:38.695Z,1.31
2018-12-29T00:19:39.109Z,1.27
2018-12-29T00:20:40.525Z,1.31
2018-12-29T00:21:40.793Z,1.38
2018-12-29T00:22:42.206Z,1.31
2018-12-29T00:23:43.180Z,1.27
2018-12-29T00:24:43.594Z,1.34
2018-12-29T00:25:44.009Z,1.36
2018-12-29T00:26:44.980Z,1.22
2018-12-29T00:27:45.184Z,1.3
2018-12-29T00:28:45.598Z,1.31
2018-12-29T00:29:46.650Z,1.21
2018-12-29T00:30:47.064Z,1.18
2018-12-29T00:31:47.608Z,1.14
2018-12-29T00:32:48.024Z,1.13
2018-12-29T00:33:48.713Z,1.13
2018-12-29T00:34:49.127Z,1.21
2018-12-29T00:35:49.538Z,1.13
2018-12-29T00:36:50.677Z,1.2
2018-12-29T00:37:51.372Z,1.27
2018-12-29T00:38:51.511Z,1.24
2018-12-29T00:39:51.932Z,1.22
2018-12-29T00:40:52.902Z,1.22
2018-12-29T00:41:53.468Z,1.2
2018-12-29T00:42:53.881Z,1.16
2018-12-29T00:43:54.573Z,1.22
2018-12-29T00:45:07.436Z,1.22
2018-12-29T00:46:08.031Z,1.18
2018-12-29T00:47:08.444Z,1.24
2018-12-29T00:48:09.413Z,1.31
2018-12-29T00:49:10.827Z,1.27
2018-12-29T00:50:11.241Z,1.25
2018-12-29T00:51:11.936Z,1.21
2018-12-29T00:52:12.419Z,1.18
2018-12-29T00:53:12.833Z,1.14
2018-12-29T00:54:14.807Z,1.16
2018-12-29T00:55:14.499Z,1.12
2018-12-29T00:56:15.048Z,1.14
2018-12-29T00:57:15.738Z,1.16
2018-12-29T00:58:16.212Z,1.18
2018-12-29T00:59:17.971Z,1.13
2018-12-29T01:00:18.387Z,1.12
2018-12-29T01:01:19.084Z,1.18
2018-12-29T01:02:19.773Z,1.16
2018-12-29T01:03:19.992Z,1.13
2018-12-29T01:04:20.962Z,1.13
2018-12-29T01:05:22.095Z,1.06
2018-12-29T01:06:22.706Z,1.09
2018-12-29T01:07:24.163Z,1.06
2018-12-29T01:08:24.580Z,1.03
2018-12-29T01:09:25.766Z,1.2
2018-12-29T01:10:25.900Z,1
2018-12-29T01:11:26.871Z,1.07
2018-12-29T01:12:27.566Z,1.18
2018-12-29T01:13:28.262Z,1.18
2018-12-29T01:14:29.229Z,1.03
2018-12-29T01:15:29.638Z,1.02
2018-12-29T01:16:30.438Z,1.16
2018-12-29T01:17:30.842Z,0.94
2018-12-29T01:18:31.970Z,1
2018-12-29T01:19:33.208Z,1.02
2018-12-29T01:20:33.891Z,0.94
2018-12-29T01:21:34.851Z,0.99
2018-12-29T01:22:35.373Z,1.02
2018-12-29T01:23:35.846Z,1.02
2018-12-29T01:24:36.970Z,1.03
2018-12-29T01:25:38.097Z,1
2018-12-29T01:26:39.468Z,1
2018-12-29T01:27:39.874Z,1.03
2018-12-29T01:28:40.556Z,1.02
2018-12-29T01:29:40.965Z,0.99
2018-12-29T01:30:41.646Z,1.09
2018-12-29T01:31:42.326Z,0.95
2018-12-29T01:32:42.731Z,0.99
2018-12-29T01:33:43.691Z,1.03
2018-12-29T01:34:43.939Z,0.96
2018-12-29T01:35:45.340Z,1
2018-12-29T01:36:45.726Z,1
2018-12-29T01:37:45.852Z,0.99
2018-12-29T01:38:46.980Z,0.95
2018-12-29T01:39:47.384Z,0.96
2018-12-29T01:40:48.543Z,0.99
2018-12-29T01:41:49.503Z,0.85
2018-12-29T01:42:49.629Z,0.95
2018-12-29T01:43:50.752Z,0.91
2018-12-29T01:44:52.206Z,0.91
2018-12-29T01:45:52.898Z,0.86
2018-12-29T01:46:53.706Z,0.89
2018-12-29T01:47:54.400Z,0.89
2018-12-29T01:48:55.529Z,0.95
2018-12-29T01:49:56.652Z,0.84
2018-12-29T01:50:57.070Z,0.91
2018-12-29T01:51:57.753Z,0.95
2018-12-29T01:52:59.432Z,0.99
2018-12-29T01:53:59.889Z,1
2018-12-29T01:55:00.884Z,1
2018-12-29T01:56:01.858Z,1.03
2018-12-29T01:57:02.315Z,1.03
2018-12-29T01:58:03.308Z,0.99
2018-12-29T01:59:04.269Z,1.13
2018-12-29T02:00:03.950Z,1.1
2018-12-29T02:01:05.076Z,1.03
2018-12-29T02:02:06.203Z,1.02
2018-12-29T02:03:07.885Z,1.09
2018-12-29T02:04:08.019Z,1.06
2018-12-29T02:05:08.977Z,1.12
2018-12-29T02:06:10.659Z,1.03
2018-12-29T02:07:11.488Z,0.94
2018-12-29T02:08:11.959Z,1.03
2018-12-29T02:09:12.361Z,0.99
2018-12-29T02:10:13.768Z,1
2018-12-29T02:11:14.450Z,1.03
2018-12-29T02:12:15.754Z,0.99
2018-12-29T02:13:15.880Z,0.88
2018-12-29T02:14:16.843Z,0.85
2018-12-29T02:15:16.804Z,0.82
2018-12-29T02:15:29.115Z,0.84
2018-12-29T02:16:29.540Z,0.84
2018-12-29T02:17:30.503Z,0.89
2018-12-29T02:18:30.904Z,0.85
2018-12-29T02:19:31.366Z,0.78
2018-12-29T02:20:32.046Z,0.85
2018-12-29T02:21:32.452Z,0.85
2018-12-29T02:22:33.628Z,0.86
2018-12-29T02:23:33.586Z,0.86
2018-12-29T02:24:34.566Z,0.77
2018-12-29T02:25:34.691Z,0.84
2018-12-29T02:26:35.301Z,0.85
2018-12-29T02:27:35.707Z,0.84
2018-12-29T02:28:36.951Z,0.84
2018-12-29T02:29:37.627Z,0.76
2018-12-29T02:30:38.597Z,0.77
2018-12-29T02:31:39.839Z,0.76
2018-12-29T02:32:40.801Z,0.74
2018-12-29T02:33:41.206Z,0.71
2018-12-29T02:34:42.168Z,0.76
2018-12-29T02:35:43.405Z,0.73
2018-12-29T02:36:43.808Z,0.76
2018-12-29T02:37:44.768Z,0.76
2018-12-29T02:38:46.012Z,0.7
2018-12-29T02:39:46.970Z,0.68
2018-12-29T02:40:47.939Z,0.66
2018-12-29T02:41:47.891Z,0.81
2018-12-29T02:42:48.573Z,0.84
2018-12-29T02:43:49.327Z,0.71
2018-12-29T02:44:50.024Z,0.76
2018-12-29T02:45:50.493Z,0.68
2018-12-29T02:46:50.879Z,0.71
2018-12-29T02:47:52.121Z,0.7
2018-12-29T02:48:52.651Z,0.68
2018-12-29T02:49:53.071Z,0.76
2018-12-29T02:50:53.480Z,0.67
2018-12-29T02:51:54.631Z,0.68
2018-12-29T02:52:55.037Z,0.71
2018-12-29T02:53:55.720Z,0.64
2018-12-29T02:54:56.753Z,0.68
2018-12-29T02:55:57.172Z,0.68
2018-12-29T02:56:57.976Z,0.66
2018-12-29T02:57:58.750Z,0.64
2018-12-29T02:58:59.995Z,0.64
2018-12-29T03:00:00.605Z,0.58
2018-12-29T03:01:01.871Z,0.67
2018-12-29T03:02:01.846Z,0.64
2018-12-29T03:03:02.525Z,0.63
2018-12-29T03:04:03.163Z,0.63
2018-12-29T03:05:02.843Z,0.66
2018-12-29T03:06:03.524Z,0.64
2018-12-29T03:07:03.885Z,0.58
2018-12-29T03:08:04.861Z,0.63
2018-12-29T03:09:05.882Z,0.64
2018-12-29T03:10:05.562Z,0.48
2018-12-29T03:11:06.363Z,0.45
2018-12-29T03:12:06.765Z,0.51
2018-12-29T03:13:07.180Z,0.52
2018-12-29T03:14:07.860Z,0.4
2018-12-29T03:15:09.661Z,0.39
2018-12-29T03:16:09.624Z,0.44
2018-12-29T03:17:10.856Z,0.45
2018-12-29T03:18:11.258Z,0.44
2018-12-29T03:19:12.222Z,0.51
2018-12-29T03:20:12.348Z,0.49
2018-12-29T03:21:16.384Z,0.45
2018-12-29T03:22:14.624Z,0.39
2018-12-29T03:23:15.309Z,0.42
2018-12-29T03:24:14.993Z,0.44
2018-12-29T03:25:16.230Z,0.45
2018-12-29T03:26:17.463Z,0.39
2018-12-29T03:27:18.282Z,0.27
2018-12-29T03:28:18.520Z,0.24
2018-12-29T03:29:19.484Z,0.36
2018-12-29T03:30:21.282Z,0.26
2018-12-29T03:31:21.832Z,0.29
2018-12-29T03:32:22.941Z,0.26
2018-12-29T03:33:24.041Z,0.45
2018-12-29T03:34:24.721Z,0.36
2018-12-29T03:35:25.401Z,0.26
2018-12-29T03:36:26.533Z,0.31
2018-12-29T03:37:27.895Z,0.19
2018-12-29T03:38:28.589Z,0.33
2018-12-29T03:39:29.299Z,0.36
2018-12-29T03:40:30.261Z,0.36
2018-12-29T03:41:31.223Z,0.29
2018-12-29T03:42:32.186Z,0.3
2018-12-29T03:43:33.160Z,0.37
2018-12-29T03:44:33.396Z,0.4
2018-12-29T03:45:34.362Z,0.37
2018-12-29T03:46:35.060Z,0.44
2018-12-29T03:47:35.932Z,0.49
2018-12-29T03:48:36.898Z,0.68
2018-12-29T03:49:38.022Z,0.55
2018-12-29T03:50:38.426Z,0.66
2018-12-29T03:51:39.943Z,0.58
2018-12-29T03:52:39.632Z,0.61
2018-12-29T03:53:40.592Z,0.68
2018-12-29T03:54:41.551Z,0.68
2018-12-29T03:55:42.235Z,0.71
2018-12-29T03:56:43.750Z,0.74
2018-12-29T03:57:44.422Z,0.73
2018-12-29T03:58:45.386Z,0.77
2018-12-29T03:59:46.361Z,0.84
2018-12-29T04:00:47.038Z,0.85
2018-12-29T04:01:47.734Z,0.78
2018-12-29T04:02:48.415Z,0.96
2018-12-29T04:03:48.668Z,1.02
2018-12-29T04:04:50.911Z,1.02
2018-12-29T04:05:51.159Z,0.94
2018-12-29T04:06:51.842Z,1.04
2018-12-29T04:07:52.786Z,1.03
2018-12-29T04:08:53.022Z,1
2018-12-29T04:09:54.260Z,1.02
2018-12-29T04:10:55.782Z,0.95
2018-12-29T04:11:55.187Z,1.1
2018-12-29T04:12:56.433Z,1.07
2018-12-29T04:13:57.407Z,1.1
2018-12-29T04:14:58.643Z,1.21
2018-12-29T04:15:59.733Z,1.13
2018-12-29T04:16:59.860Z,1.14
2018-12-29T04:18:01.284Z,1.1
2018-12-29T04:19:01.381Z,1.12
2018-12-29T04:20:02.622Z,1.14
2018-12-29T04:21:02.596Z,1.07
2018-12-29T04:22:03.564Z,1.02
2018-12-29T04:23:04.915Z,0.96
2018-12-29T04:24:05.322Z,0.95
2018-12-29T04:25:05.729Z,0.92
2018-12-29T04:26:06.700Z,0.91
2018-12-29T04:27:08.217Z,0.81
2018-12-29T04:28:08.024Z,0.88
2018-12-29T04:29:09.430Z,0.86
2018-12-29T04:30:09.832Z,0.76
2018-12-29T04:31:10.975Z,0.77
2018-12-29T04:32:12.655Z,0.71
2018-12-29T04:33:13.062Z,0.66
2018-12-29T04:34:14.748Z,0.63
2018-12-29T04:35:14.707Z,0.61
2018-12-29T04:36:15.113Z,0.48
2018-12-29T04:37:15.352Z,0.4
2018-12-29T04:38:16.017Z,0.42
2018-12-29T04:39:16.422Z,0.29
2018-12-29T04:40:16.380Z,0.31
2018-12-29T04:41:17.401Z,0.3
2018-12-29T04:42:17.807Z,0.2
2018-12-29T04:43:18.211Z,0.09
2018-12-29T04:44:18.893Z,0.05
2018-12-29T04:45:20.306Z,-0.03
2018-12-29T04:46:20.989Z,-0.03
2018-12-29T04:47:22.118Z,-0.1
2018-12-29T04:48:23.772Z,-0.17
2018-12-29T04:49:23.733Z,-0.1
2018-12-29T04:50:24.417Z,-0.13
2018-12-29T04:51:25.099Z,-0.18
2018-12-29T04:52:25.503Z,-0.18
2018-12-29T04:53:26.627Z,-0.28
2018-12-29T04:54:27.593Z,-0.24
2018-12-29T04:55:27.721Z,-0.27
2018-12-29T04:56:28.479Z,-0.31
2018-12-29T04:57:28.888Z,-0.35
2018-12-29T04:58:29.697Z,-0.36
2018-12-29T04:59:30.103Z,-0.39
2018-12-29T05:00:30.512Z,-0.23
2018-12-29T05:01:30.985Z,-0.31
2018-12-29T05:02:31.110Z,-0.24
2018-12-29T05:03:32.790Z,-0.17
2018-12-29T05:04:33.473Z,-0.26
2018-12-29T05:05:34.432Z,-0.23
2018-12-29T05:06:35.844Z,-0.28
2018-12-29T05:07:37.076Z,-0.18
2018-12-29T05:08:37.460Z,-0.21
2018-12-29T05:09:38.143Z,-0.21
2018-12-29T05:10:39.102Z,-0.2
2018-12-29T05:11:39.508Z,-0.26
2018-12-29T05:12:40.914Z,-0.2
2018-12-29T05:13:41.322Z,-0.18
2018-12-29T05:14:42.281Z,-0.28
2018-12-29T05:15:43.521Z,-0.26
2018-12-29T05:16:44.272Z,-0.17
2018-12-29T05:17:44.954Z,-0.1
2018-12-29T05:18:45.504Z,-0.15
2018-12-29T05:19:46.676Z,-0.13
2018-12-29T05:20:47.914Z,-0.12
2018-12-29T05:21:48.599Z,-0.17
2018-12-29T05:22:49.007Z,-0.24
2018-12-29T05:23:49.410Z,-0.2
2018-12-29T05:24:50.093Z,-0.15
2018-12-29T05:25:50.500Z,-0.15
2018-12-29T05:26:51.180Z,-0.17
2018-12-29T05:27:52.305Z,-0.21
2018-12-29T05:28:53.411Z,-0.15
2018-12-29T05:29:53.814Z,-0.13
2018-12-29T05:30:55.497Z,-0.07
2018-12-29T05:31:55.622Z,-0.09
2018-12-29T05:32:56.303Z,-0.09
2018-12-29T05:33:56.542Z,-0.06
2018-12-29T05:34:57.221Z,0.05
2018-12-29T05:35:58.180Z,-0.15
2018-12-29T05:36:58.880Z,-0.28
2018-12-29T05:37:59.569Z,-0.23
2018-12-29T05:39:00.670Z,-0.26
2018-12-29T05:40:01.419Z,-0.18
2018-12-29T05:41:01.824Z,-0.28
2018-12-29T05:42:02.786Z,-0.24
2018-12-29T05:43:03.467Z,-0.26
2018-12-29T05:44:04.152Z,-0.09
2018-12-29T05:45:05.002Z,-0.17
2018-12-29T05:46:05.962Z,-0.23
2018-12-29T05:47:06.920Z,-0.23
2018-12-29T05:48:07.324Z,-0.26
2018-12-29T05:49:08.417Z,-0.17
2018-12-29T05:50:09.380Z,-0.18
2018-12-29T05:51:09.787Z,-0.24
2018-12-29T05:52:10.190Z,-0.2
2018-12-29T05:53:10.875Z,-0.18
2018-12-29T05:54:12.390Z,-0.17
2018-12-29T05:55:12.079Z,-0.26
2018-12-29T05:56:12.780Z,-0.26
2018-12-29T05:57:13.745Z,-0.23
2018-12-29T05:58:14.201Z,-0.26
2018-12-29T05:59:15.567Z,-0.24
2018-12-29T06:00:16.312Z,-0.26
2018-12-29T06:01:16.998Z,-0.13
2018-12-29T06:02:18.404Z,-0.1
2018-12-29T06:03:18.831Z,-0.02
2018-12-29T06:04:19.516Z,-0.07
2018-12-29T06:05:20.196Z,-0.12
2018-12-29T06:06:21.879Z,-0.12
2018-12-29T06:07:22.561Z,-0.05
2018-12-29T06:08:22.775Z,-0.13
2018-12-29T06:09:24.419Z,-0.1
2018-12-29T06:10:25.107Z,-0.28
2018-12-29T06:11:25.510Z,-0.27
2018-12-29T06:12:25.913Z,-0.23
2018-12-29T06:13:26.323Z,-0.2
2018-12-29T06:14:27.282Z,-0.26
2018-12-29T06:15:27.960Z,-0.21
2018-12-29T06:16:29.108Z,-0.23
2018-12-29T06:17:29.798Z,-0.24
2018-12-29T06:18:30.756Z,-0.23
2018-12-29T06:19:31.358Z,-0.21
2018-12-29T06:20:32.324Z,-0.21
2018-12-29T06:21:33.000Z,-0.18
2018-12-29T06:22:34.517Z,-0.23
2018-12-29T06:23:35.204Z,-0.26
2018-12-29T06:24:35.639Z,-0.13
2018-12-29T06:25:37.606Z,-0.15
2018-12-29T06:26:38.133Z,-0.21
2018-12-29T06:27:38.815Z,-0.1
2018-12-29T06:28:39.498Z,-0.2
2018-12-29T06:29:39.752Z,-0.07
2018-12-29T06:30:40.435Z,-0.21
2018-12-29T06:31:41.860Z,-0.23
2018-12-29T06:32:41.983Z,-0.26
2018-12-29T06:33:43.222Z,-0.21
2018-12-29T06:34:43.630Z,-0.18
2018-12-29T06:35:45.034Z,-0.23
2018-12-29T06:36:45.160Z,-0.24
2018-12-29T06:37:45.565Z,-0.28
2018-12-29T06:38:46.969Z,-0.21
2018-12-29T06:39:48.189Z,-0.35
2018-12-29T06:40:48.594Z,-0.2
2018-12-29T06:41:50.135Z,-0.2
2018-12-29T06:42:50.534Z,-0.26
2018-12-29T06:43:51.214Z,-0.18
2018-12-29T06:44:51.902Z,-0.23
2018-12-29T06:45:53.028Z,-0.23
2018-12-29T06:46:53.433Z,-0.28
2018-12-29T06:47:54.127Z,-0.36
2018-12-29T06:48:54.811Z,-0.45
2018-12-29T06:49:55.777Z,-0.62
2018-12-29T06:50:56.460Z,-0.51
2018-12-29T06:51:56.873Z,-0.54
2018-12-29T06:52:58.341Z,-0.46
2018-12-29T06:53:59.024Z,-0.46
2018-12-29T06:54:59.715Z,-0.45
2018-12-29T06:56:00.693Z,-0.53
2018-12-29T06:57:02.093Z,-0.56
2018-12-29T06:58:02.782Z,-0.49
2018-12-29T06:59:03.797Z,-0.53
2018-12-29T07:00:04.481Z,-0.48
2018-12-29T07:01:04.900Z,-0.35
2018-12-29T07:02:06.143Z,-0.41
2018-12-29T07:03:06.271Z,-0.28
2018-12-29T07:04:07.677Z,-0.26
2018-12-29T07:05:08.647Z,-0.26
2018-12-29T07:06:08.886Z,-0.27
2018-12-29T07:07:09.016Z,-0.27
2018-12-29T07:08:09.701Z,-0.28
2018-12-29T07:09:11.386Z,-0.44
2018-12-29T07:10:12.492Z,-0.36
2018-12-29T07:11:13.178Z,-0.41
2018-12-29T07:12:14.939Z,-0.44
2018-12-29T07:13:14.905Z,-0.46
2018-12-29T07:14:15.590Z,-0.42
2018-12-29T07:15:16.550Z,-0.44
2018-12-29T07:16:16.957Z,-0.64
2018-12-29T07:17:17.648Z,-0.62
2018-12-29T07:18:18.056Z,-0.7
2018-12-29T07:19:18.464Z,-0.67
2018-12-29T07:20:19.279Z,-0.67
2018-12-29T07:21:20.243Z,-0.69
2018-12-29T07:22:20.980Z,-0.57
2018-12-29T07:23:21.668Z,-0.57
2018-12-29T07:24:22.193Z,-0.48
2018-12-29T07:25:22.883Z,-0.46
2018-12-29T07:26:23.564Z,-0.41
2018-12-29T07:27:24.258Z,-0.35
2018-12-29T07:28:25.387Z,-0.36
2018-12-29T07:29:26.073Z,-0.3
2018-12-29T07:30:26.892Z,-0.27
2018-12-29T07:31:27.580Z,-0.17
2018-12-29T07:32:27.764Z,-0.24
2018-12-29T07:33:28.458Z,-0.15
2018-12-29T07:34:29.583Z,-0.15
2018-12-29T07:35:30.548Z,-0.23
2018-12-29T07:36:30.956Z,-0.26
2018-12-29T07:37:31.642Z,-0.26
2018-12-29T07:38:33.051Z,-0.23
2018-12-29T07:39:34.181Z,-0.24
2018-12-29T07:40:35.004Z,-0.23
2018-12-29T07:41:35.521Z,-0.17
2018-12-29T07:42:36.484Z,-0.12
2018-12-29T07:43:36.894Z,-0.03
2018-12-29T07:44:38.299Z,-0.09
2018-12-29T07:45:38.710Z,-0.12
2018-12-29T07:46:39.118Z,-0.13
2018-12-29T07:47:40.084Z,-0.12
2018-12-29T07:48:41.046Z,-0.2
2018-12-29T07:49:42.014Z,-0.2
2018-12-29T07:50:42.401Z,-0.2
2018-12-29T07:51:42.533Z,-0.23
2018-12-29T07:52:42.941Z,-0.17
2018-12-29T07:53:44.073Z,-0.02
2018-12-29T07:54:44.758Z,-0.02
2018-12-29T07:55:45.444Z,0.02
2018-12-29T07:56:46.128Z,0.3
2018-12-29T07:57:46.819Z,0.59
2018-12-29T07:58:47.789Z,1.02
2018-12-29T07:59:47.920Z,1.32
2018-12-29T08:00:49.334Z,1.57
2018-12-29T08:01:50.300Z,1.79
2018-12-29T08:02:50.986Z,1.75
2018-12-29T08:03:51.675Z,1.79
2018-12-29T08:04:52.367Z,1.68
2018-12-29T08:05:53.051Z,1.6
2018-12-29T08:06:53.181Z,1.56
2018-12-29T08:07:53.869Z,1.6
2018-12-29T08:08:54.830Z,1.6
2018-12-29T08:09:55.518Z,1.64
2018-12-29T08:10:55.628Z,1.79
2018-12-29T08:11:56.773Z,1.64
2018-12-29T08:12:57.457Z,1.52
2018-12-29T08:13:58.147Z,1.56
2018-12-29T08:14:58.553Z,1.32
2018-12-29T08:15:59.686Z,1.18
2018-12-29T08:17:00.093Z,1.07
2018-12-29T08:18:01.505Z,1.07
2018-12-29T08:19:02.469Z,0.95
2018-12-29T08:20:03.707Z,0.96
2018-12-29T08:21:03.819Z,1.03
2018-12-29T08:22:04.504Z,0.99
2018-12-29T08:23:05.193Z,0.99
2018-12-29T08:24:06.177Z,1.04
2018-12-29T08:25:07.418Z,1.03
2018-12-29T08:26:07.385Z,0.95
2018-12-29T08:27:08.073Z,0.99
2018-12-29T08:28:08.764Z,0.96
2018-12-29T08:29:08.752Z,0.96
2018-12-29T08:30:09.436Z,1.03
2018-12-29T08:31:10.550Z,0.99
2018-12-29T08:32:11.301Z,0.99
2018-12-29T08:33:12.036Z,0.92
2018-12-29T08:34:12.720Z,0.95
2018-12-29T08:35:13.410Z,0.88
2018-12-29T08:36:13.935Z,0.84
2018-12-29T08:37:14.347Z,0.76
2018-12-29T08:38:15.031Z,0.73
2018-12-29T08:39:15.439Z,0.78
2018-12-29T08:40:16.128Z,0.73
2018-12-29T08:41:18.539Z,0.71
2018-12-29T08:42:17.028Z,0.77
2018-12-29T08:43:17.220Z,0.76
2018-12-29T08:44:18.473Z,0.78
2018-12-29T08:45:19.441Z,0.78
2018-12-29T08:46:20.416Z,0.78
2018-12-29T08:47:20.826Z,0.84
2018-12-29T08:48:21.795Z,0.85
2018-12-29T08:49:22.759Z,0.81
2018-12-29T08:50:23.447Z,0.82
2018-12-29T08:51:23.994Z,0.81
2018-12-29T08:52:25.683Z,0.88
2018-12-29T08:53:25.373Z,0.88
2018-12-29T08:54:26.511Z,0.86
2018-12-29T08:55:27.235Z,0.91
2018-12-29T08:56:27.384Z,0.92
2018-12-29T08:57:27.343Z,0.96
2018-12-29T08:58:28.027Z,0.96
2018-12-29T08:59:28.714Z,0.99
2018-12-29T09:00:29.844Z,1.03
2018-12-29T09:01:30.408Z,0.99
2018-12-29T09:02:30.815Z,0.99
2018-12-29T09:03:31.512Z,1.09
2018-12-29T09:04:32.476Z,1.12
2018-12-29T09:05:32.885Z,1.13
2018-12-29T09:06:33.019Z,1.06
2018-12-29T09:07:33.431Z,1.16
2018-12-29T09:08:34.676Z,1.12
2018-12-29T09:09:35.360Z,1.21
2018-12-29T09:10:36.491Z,1.32
2018-12-29T09:11:37.580Z,1.38
2018-12-29T09:12:38.597Z,1.38
2018-12-29T09:13:39.566Z,1.32
2018-12-29T09:14:39.972Z,1.3
2018-12-29T09:15:40.384Z,1.14
2018-12-29T09:16:40.796Z,1.14
2018-12-29T09:17:41.479Z,1.04
2018-12-29T09:18:53.915Z,1.07
2018-12-29T09:19:54.322Z,1.12
2018-12-29T09:20:55.007Z,1.04
2018-12-29T09:21:55.413Z,1.02
2018-12-29T09:22:55.824Z,1.12
2018-12-29T09:23:56.510Z,1.02
2018-12-29T09:24:57.194Z,1.14
2018-12-29T09:25:57.881Z,1.21
2018-12-29T09:26:58.867Z,1.18
2018-12-29T09:27:58.996Z,1.18
2018-12-29T09:28:59.716Z,1.16
2018-12-29T09:30:00.727Z,1.2
2018-12-29T09:31:01.707Z,1.14
2018-12-29T09:32:03.517Z,1.3
2018-12-29T09:33:04.209Z,1.3
2018-12-29T09:34:04.687Z,1.36
2018-12-29T09:35:05.092Z,1.38
2018-12-29T09:36:05.504Z,1.46
2018-12-29T09:37:07.023Z,1.49
2018-12-29T09:38:07.713Z,1.52
2018-12-29T09:39:08.399Z,1.5
2018-12-29T09:40:08.932Z,1.58
2018-12-29T09:41:10.358Z,1.58
2018-12-29T09:42:11.373Z,1.7
2018-12-29T09:43:12.345Z,1.66
2018-12-29T09:44:13.029Z,1.74
2018-12-29T09:45:13.438Z,1.7
2018-12-29T09:46:14.132Z,1.71
2018-12-29T09:47:21.228Z,1.61
2018-12-29T09:47:27.569Z,1.67
2018-12-29T09:48:28.258Z,1.61
2018-12-29T09:49:29.222Z,1.61
2018-12-29T09:50:29.630Z,1.6
2018-12-29T09:51:31.819Z,1.52
2018-12-29T09:52:31.953Z,1.63
2018-12-29T09:53:32.914Z,1.56
2018-12-29T09:54:33.113Z,1.57
2018-12-29T09:55:34.522Z,1.64
2018-12-29T09:56:35.487Z,1.58
2018-12-29T09:57:35.730Z,1.68
2018-12-29T09:58:36.001Z,1.64
2018-12-29T09:59:37.134Z,1.68
2018-12-29T10:00:37.542Z,1.64
2018-12-29T10:01:38.512Z,1.61
2018-12-29T10:02:38.929Z,1.56
2018-12-29T10:03:39.893Z,1.66
2018-12-29T10:04:40.301Z,1.76
2018-12-29T10:05:41.432Z,1.5
2018-12-29T10:06:42.192Z,1.49
2018-12-29T10:07:43.602Z,1.36
2018-12-29T10:08:44.707Z,1.28
2018-12-29T10:09:45.116Z,1.27
2018-12-29T10:10:45.524Z,1.38
2018-12-29T10:11:46.653Z,1.3
2018-12-29T10:12:47.338Z,1.14
2018-12-29T10:13:47.744Z,1.21
2018-12-29T10:14:48.706Z,1.1
2018-12-29T10:15:50.111Z,1.18
2018-12-29T10:16:50.244Z,1.12
2018-12-29T10:17:51.213Z,1.07
2018-12-29T10:18:51.592Z,1.12
2018-12-29T10:19:52.286Z,1.1
2018-12-29T10:20:52.975Z,1.03
2018-12-29T10:21:54.663Z,1.04
2018-12-29T10:22:55.092Z,0.99
2018-12-29T10:23:56.784Z,1.02
2018-12-29T10:24:56.912Z,1.1
2018-12-29T10:25:58.317Z,1
2018-12-29T10:26:59.005Z,1.12
2018-12-29T10:27:59.763Z,1.12
2018-12-29T10:29:00.293Z,1.18
2018-12-29T10:30:00.711Z,1.12
2018-12-29T10:31:01.416Z,1.22
2018-12-29T10:32:02.108Z,1.3
2018-12-29T10:33:03.067Z,1.22
2018-12-29T10:34:03.196Z,1.25
2018-12-29T10:35:04.609Z,1.3
2018-12-29T10:36:05.020Z,1.38
2018-12-29T10:37:05.428Z,1.38
2018-12-29T10:38:06.114Z,1.52
2018-12-29T10:39:06.669Z,1.52
2018-12-29T10:40:07.355Z,1.63
2018-12-29T10:41:08.040Z,1.71
2018-12-29T10:42:08.452Z,1.76
2018-12-29T10:43:09.927Z,1.78
2018-12-29T10:44:10.631Z,1.74
2018-12-29T10:45:11.320Z,1.81
2018-12-29T10:46:12.452Z,1.79
2018-12-29T10:47:13.584Z,1.76
2018-12-29T10:48:14.273Z,1.81
2018-12-29T10:49:15.391Z,1.81
2018-12-29T10:50:15.523Z,1.81
2018-12-29T10:51:16.489Z,1.88
2018-12-29T10:52:17.728Z,1.78
2018-12-29T10:53:17.861Z,1.76
2018-12-29T10:54:18.547Z,1.78
2018-12-29T10:55:20.070Z,1.74
2018-12-29T10:56:20.769Z,1.76
2018-12-29T10:57:21.456Z,1.78
2018-12-29T10:58:22.432Z,1.81
2018-12-29T10:59:23.597Z,1.75
2018-12-29T11:00:24.574Z,1.75
2018-12-29T11:01:25.269Z,1.74
2018-12-29T11:02:26.241Z,1.82
2018-12-29T11:03:26.937Z,1.75
2018-12-29T11:04:27.626Z,1.7
2018-12-29T11:05:28.314Z,1.84
2018-12-29T11:06:29.723Z,1.79
2018-12-29T11:07:30.134Z,1.89
2018-12-29T11:08:30.546Z,1.97
2018-12-29T11:09:31.373Z,2.07
2018-12-29T11:10:32.106Z,2.03
2018-12-29T11:11:33.074Z,2.16
2018-12-29T11:12:33.486Z,2.18
2018-12-29T11:13:34.176Z,2.3
2018-12-29T11:14:34.872Z,2.39
2018-12-29T11:15:35.556Z,2.47
2018-12-29T11:16:35.970Z,2.61
2018-12-29T11:17:43.527Z,2.7
2018-12-29T11:17:48.971Z,2.65
2018-12-29T11:18:50.006Z,2.69
2018-12-29T11:19:51.263Z,2.69
2018-12-29T11:20:51.234Z,2.68
2018-12-29T11:21:51.940Z,2.69
2018-12-29T11:22:52.907Z,2.72
2018-12-29T11:23:53.593Z,2.65
2018-12-29T11:24:54.281Z,2.69
2018-12-29T11:25:54.973Z,2.9
2018-12-29T11:26:55.661Z,2.97
2018-12-29T11:27:55.907Z,3.12
2018-12-29T11:28:56.732Z,3.09
2018-12-29T11:29:57.970Z,3.3
2018-12-29T11:30:58.938Z,3.46
2018-12-29T11:31:59.354Z,3.49
2018-12-29T11:33:00.321Z,3.55
2018-12-29T11:34:00.817Z,3.68
2018-12-29T11:35:02.508Z,3.7
2018-12-29T11:36:02.759Z,3.71
2018-12-29T11:37:03.171Z,3.88
2018-12-29T11:38:03.610Z,4.02
2018-12-29T11:39:05.288Z,3.94
2018-12-29T11:40:05.698Z,3.95
2018-12-29T11:41:07.109Z,4.09
2018-12-29T11:42:07.574Z,4.2
2018-12-29T11:43:08.263Z,4.4
2018-12-29T11:44:08.400Z,4.56
2018-12-29T11:45:10.111Z,4.7
2018-12-29T11:46:10.533Z,4.82
2018-12-29T11:47:10.777Z,4.79
2018-12-29T11:48:10.912Z,4.87
2018-12-29T11:49:19.188Z,4.83
2018-12-29T11:49:24.697Z,4.97
2018-12-29T11:50:25.831Z,4.94
2018-12-29T11:51:26.581Z,5.05
2018-12-29T11:52:28.030Z,5.08
2018-12-29T11:53:29.320Z,4.87
2018-12-29T11:54:29.637Z,4.94
2018-12-29T11:55:31.696Z,4.84
2018-12-29T11:56:31.578Z,4.84
2018-12-29T11:57:32.426Z,4.66
2018-12-29T11:58:32.886Z,4.63
2018-12-29T11:59:34.317Z,4.71
2018-12-29T12:00:35.477Z,4.7
2018-12-29T12:01:36.212Z,4.84
2018-12-29T12:02:36.949Z,4.98
2018-12-29T12:03:37.432Z,5.1
2018-12-29T12:04:37.882Z,5.28
2018-12-29T12:05:39.274Z,5.54
2018-12-29T12:06:39.897Z,5.47
2018-12-29T12:07:40.463Z,5.37
2018-12-29T12:08:40.935Z,5.34
2018-12-29T12:09:41.679Z,5.4
2018-12-29T12:10:42.289Z,5.56
2018-12-29T12:11:42.736Z,5.43
2018-12-29T12:12:43.814Z,5.55
2018-12-29T12:13:44.549Z,5.43
2018-12-29T12:14:45.295Z,5.46
2018-12-29T12:15:46.901Z,5.47
2018-12-29T12:16:47.424Z,5.49
2018-12-29T12:17:47.906Z,5.44
2018-12-29T12:18:48.976Z,5.34
2018-12-29T12:19:49.781Z,5.29
2018-12-29T12:20:50.228Z,5.18
2018-12-29T12:21:50.685Z,5.34
2018-12-29T12:22:51.694Z,5.19
2018-12-29T12:23:52.741Z,5.25
2018-12-29T12:24:52.918Z,5.28
2018-12-29T12:25:54.334Z,5.2
2018-12-29T12:26:54.845Z,5.2
2018-12-29T12:27:55.074Z,5.23
2018-12-29T12:28:56.955Z,5.29
2018-12-29T12:29:56.910Z,5.02
2018-12-29T12:30:59.239Z,5
2018-12-29T12:31:59.819Z,4.87
2018-12-29T12:33:00.308Z,4.9
2018-12-29T12:34:02.007Z,4.86
2018-12-29T12:35:02.662Z,4.82
2018-12-29T12:36:03.495Z,5.15
2018-12-29T12:37:03.735Z,5.04
2018-12-29T12:38:05.468Z,5.07
2018-12-29T12:39:06.364Z,5.1
2018-12-29T12:40:06.811Z,5.12
2018-12-29T12:41:07.796Z,5.13
2018-12-29T12:42:07.859Z,5.23
2018-12-29T12:43:09.504Z,5.29
2018-12-29T12:44:10.734Z,5.23
2018-12-29T12:45:10.227Z,5.13
2018-12-29T12:46:10.756Z,5.19
2018-12-29T12:47:10.836Z,5.04
2018-12-29T12:48:11.596Z,5.07
2018-12-29T12:49:12.092Z,5.02
2018-12-29T12:50:13.199Z,4.95
2018-12-29T12:51:14.059Z,4.79
2018-12-29T12:52:14.807Z,4.68
2018-12-29T12:53:16.113Z,4.58
2018-12-29T12:54:16.218Z,4.63
2018-12-29T12:55:16.948Z,4.71
2018-12-29T12:56:17.668Z,4.82
2018-12-29T12:57:20.664Z,4.84
2018-12-29T12:58:21.379Z,4.76
2018-12-29T12:59:22.588Z,4.84
2018-12-29T13:00:22.060Z,4.92
2018-12-29T13:01:22.856Z,4.78
2018-12-29T13:02:23.610Z,4.79
2018-12-29T13:03:24.676Z,4.83
2018-12-29T13:04:25.429Z,5.18
2018-12-29T13:05:26.197Z,5.16
2018-12-29T13:06:26.653Z,5.29
2018-12-29T13:07:28.087Z,5.4
2018-12-29T13:08:28.550Z,5.44
2018-12-29T13:09:29.357Z,5.52
2018-12-29T13:10:30.080Z,5.54
2018-12-29T13:11:31.063Z,5.62
2018-12-29T13:12:31.495Z,5.7
2018-12-29T13:13:32.043Z,5.91
2018-12-29T13:14:32.509Z,5.94
2018-12-29T13:15:33.531Z,5.98
2018-12-29T13:16:34.540Z,6.2
2018-12-29T13:17:36.089Z,6.34
2018-12-29T13:18:37.387Z,6.6
2018-12-29T13:19:37.717Z,6.71
2018-12-29T13:20:38.149Z,6.75
2018-12-29T13:21:39.166Z,6.75
2018-12-29T13:22:39.617Z,6.78